Consulta les dades en temps real de l'estació municipal de Susqueda - Veïnat del Coll
| Hora UTC | 04:00 |
|---|---|
| Temperatura | 24.2 ºC |
| Humitat | 39.3 % |
| Pressió | 1024.6 hPa |
| Pluja | 0.0 mm |
| Velocitat vent | 4.3 km/h |
| Direcció vent | SSW |
| Radiació solar | 0.1 W/m² |
| Temperatura (ºC) | Humitat (%) | Pressió (hPa) | Velocitat vent (km/h) | Precipitació (mm) | Radiació solar (W/m²) | |||||||||||||
|---|---|---|---|---|---|---|---|---|---|---|---|---|---|---|---|---|---|---|
| Hora UTC | Aire | Humitat | Pressió | Vel. | Dir. | Vel. Max | Dir. | Intent. màx 5 min. | Rad. Sol. | |||||||||
| 00:05 | 24.1 | 61.1 | 1024.8 | 4.6 | SW | 4.6 | SSW | 0.0 | 0.1 | |||||||||
| 00:10 | 24.0 | 60.4 | 1024.8 | 4.5 | SW | 8.8 | SSW | 0.0 | 0.1 | |||||||||
| 00:15 | 23.9 | 59.5 | 1024.8 | 4.6 | SW | 9.2 | WSW | 0.0 | 0.1 | |||||||||
| 00:20 | 23.9 | 58.8 | 1024.8 | 4.8 | SW | 8.8 | SSW | 0.0 | 0.1 | |||||||||
| 00:25 | 24.0 | 57.6 | 1024.7 | 4.5 | SW | 9.9 | SSW | 0.0 | 0.1 | |||||||||
| 00:30 | 23.8 | 57.5 | 1024.7 | 4.3 | SW | 7.8 | W | 0.0 | 0.1 | |||||||||
| 00:35 | 23.9 | 57.0 | 1024.7 | 4.9 | SW | 9.2 | SW | 0.0 | 0.1 | |||||||||
| 00:40 | 23.8 | 56.4 | 1024.7 | 4.5 | SW | 9.5 | SW | 0.0 | 0.1 | |||||||||
| 00:45 | 23.8 | 56.1 | 1024.7 | 4.9 | SW | 8.5 | SSW | 0.0 | 0.1 | |||||||||
| 00:50 | 23.9 | 55.3 | 1024.7 | 4.1 | SW | 7.8 | SSW | 0.0 | 0.1 | |||||||||
| 00:55 | 24.0 | 55.2 | 1024.7 | 3.1 | SW | 7.1 | SSW | 0.0 | 0.1 | |||||||||
| 01:00 | 23.9 | 55.2 | 1024.7 | 2.7 | SW | 6.7 | SW | 0.0 | 0.1 | |||||||||
| 01:05 | 23.8 | 55.8 | 1024.7 | 2.1 | WSW | 6.7 | W | 0.0 | 0.1 | |||||||||
| 01:10 | 23.6 | 57.0 | 1024.7 | 1.8 | SW | 6.0 | SSW | 0.0 | 0.1 | |||||||||
| 01:15 | 23.5 | 57.7 | 1024.7 | 1.3 | SW | 3.5 | S | 0.0 | 0.1 | |||||||||
| 01:20 | 23.3 | 57.7 | 1024.7 | 1.2 | SW | 3.2 | SW | 0.0 | 0.1 | |||||||||
| 01:25 | 23.2 | 57.4 | 1024.7 | 1.9 | W | 3.9 | W | 0.0 | 0.1 | |||||||||
| 01:30 | 23.1 | 57.6 | 1024.7 | 2.4 | W | 4.6 | W | 0.0 | 0.1 | |||||||||
| 01:35 | 23.0 | 56.9 | 1024.8 | 0.5 | W | 2.5 | WNW | 0.0 | 0.1 | |||||||||
| 01:40 | 23.3 | 55.6 | 1024.8 | 0.0 | NNE | 0.0 | N | 0.0 | 0.1 | |||||||||
| 01:45 | 23.3 | 55.1 | 1024.7 | 0.0 | SW | 1.1 | WSW | 0.0 | 0.1 | |||||||||
| 01:50 | 23.5 | 54.4 | 1024.7 | 0.4 | SSW | 2.5 | SSW | 0.0 | 0.1 | |||||||||
| 01:55 | 23.5 | 54.3 | 1024.8 | 1.2 | SSE | 2.8 | SE | 0.0 | 0.1 | |||||||||
| 02:00 | 23.8 | 53.5 | 1024.8 | 2.0 | S | 3.5 | SSW | 0.0 | 0.1 | |||||||||
| 02:05 | 24.1 | 52.8 | 1024.8 | 3.1 | S | 4.2 | S | 0.0 | 0.1 | |||||||||
| 02:10 | 23.9 | 52.8 | 1024.8 | 3.1 | S | 4.9 | SE | 0.0 | 0.1 | |||||||||
| 02:15 | 24.0 | 51.8 | 1024.8 | 3.4 | SSE | 6.0 | SE | 0.0 | 0.1 | |||||||||
| 02:20 | 24.2 | 51.2 | 1024.8 | 3.4 | S | 6.0 | SE | 0.0 | 0.1 | |||||||||
| 02:25 | 24.1 | 51.7 | 1024.7 | 3.5 | S | 4.6 | SSW | 0.0 | 0.1 | |||||||||
| 02:30 | 24.1 | 51.6 | 1024.7 | 3.2 | SSE | 4.9 | SE | 0.0 | 0.1 | |||||||||
| 02:35 | 24.1 | 51.6 | 1024.7 | 3.9 | SSE | 7.1 | SE | 0.0 | 0.1 | |||||||||
| 02:40 | 24.1 | 51.5 | 1024.7 | 3.7 | SSE | 6.7 | SE | 0.0 | 0.1 | |||||||||
| 02:45 | 24.1 | 50.9 | 1024.6 | 3.7 | SSE | 7.4 | SE | 0.0 | 0.1 | |||||||||
| 02:50 | 24.1 | 49.7 | 1024.6 | 3.7 | S | 6.0 | SSE | 0.0 | 0.1 | |||||||||
| 02:55 | 23.8 | 48.1 | 1024.6 | 3.9 | S | 6.4 | SE | 0.0 | 0.1 | |||||||||
| 03:00 | 23.8 | 47.1 | 1024.6 | 4.5 | SSE | 8.1 | SSE | 0.0 | 0.1 | |||||||||
| 03:05 | 24.0 | 46.0 | 1024.6 | 5.6 | SE | 8.8 | SE | 0.0 | 0.1 | |||||||||
| 03:10 | 24.1 | 45.5 | 1024.6 | 3.9 | SSE | 7.1 | SE | 0.0 | 0.1 | |||||||||
| 03:15 | 24.0 | 45.2 | 1024.6 | 3.5 | SSE | 5.6 | SE | 0.0 | 0.1 | |||||||||
| 03:20 | 23.9 | 44.6 | 1024.6 | 2.9 | S | 4.6 | S | 0.0 | 0.1 | |||||||||
| 03:25 | 23.9 | 45.0 | 1024.6 | 2.6 | S | 3.5 | S | 0.0 | 0.1 | |||||||||
| 03:30 | 23.9 | 47.0 | 1024.6 | 2.7 | S | 3.5 | S | 0.0 | 0.1 | |||||||||
| 03:35 | 23.8 | 49.0 | 1024.7 | 2.9 | S | 4.9 | SSE | 0.0 | 0.1 | |||||||||
| 03:40 | 23.6 | 50.7 | 1024.7 | 3.2 | SSW | 4.9 | SSW | 0.0 | 0.1 | |||||||||
| 03:45 | 23.5 | 50.3 | 1024.6 | 3.5 | SSW | 7.4 | SSW | 0.0 | 0.1 | |||||||||
| 03:50 | 23.6 | 44.0 | 1024.6 | 5.5 | SSW | 7.8 | S | 0.0 | 0.1 | |||||||||
| 03:55 | 24.0 | 39.4 | 1024.6 | 5.4 | SSW | 8.8 | SSW | 0.0 | 0.1 | |||||||||
| 04:00 | 24.2 | 39.3 | 1024.6 | 4.3 | SSW | 6.7 | S | 0.0 | 0.1 | |||||||||
| Màxima | 24.2 | 61.1 | 1024.8 | 5.6 | SE | 9.9 | SSW | 0.0 | 0.1 | |||||||||
| Mínima | 20 | 39.3 | 1024.6 | |||||||||||||||
| Total | 0.0 | |||||||||||||||||